首页
METAR-TAF:

METAR-TAF

机场 :

康科迪亚, 堪薩斯州, 美国

纬度: 39-33-05N, 经度: 097-39-02W, 海拔: 453米

当前天气观测

该预报发布于45分钟前的05:55 UTC
风速8节,风向
温度 26°C
湿度 58%
气压 1010 hPa
能見度: 16.1公里
天空无云

METAR: KCNK 130555Z AUTO 19008KT 10SM CLR 26/17 A2982 RMK AO2 SLP077 T02610172 10333 20261 403440189 51014

时间: 01:40 (06:40 UTC)


TAF: 丢失

超过4000个机场的气象观测和天气预报(METAR&TAF报告)。

可查询的气象台以黄色和红色小点在地图上表示。

将鼠标移到小点上方,可查看气象台名称。

然后点击查看天气观测和预报。

如需切换地图:点击带黑十字的绿色按钮放大地图;点击带横线的绿色按钮缩小地图;或者点击绿色箭头查看邻近地区的地图。


METAR-TAF: